Adams, North Carolina
Current Conditions -  °F | °C
As of 8:55 PM on Saturday 20 Dec 2014 (Local Time) from KTNB Reporting Station
Overcast Overcast  
Wind Chill: 35°   Ceiling: 700
Heat Index: 35°   Visibility: 10mi
Dew Point: 32°   Wind: 0mph
Humidity: 90%   Direction: NA
Pressure: 30.17"   Gusts: NA
Location:  36.2085°N, 81.6605°W
Report Text: KTNB 210155Z AUTO 00000KT 10SM BKN007 OVC010 02/00 A3017 RMK AO2 T00150001
Loading
Personal Weather Stations






























Interactive Weather Map New forecast layout! Learn more

10-Day Weather Forecast

Advertisements
Track Severe Weather on mobile